Hlavní strana
METAR-TAF:

METAR-TAF

Letiště :

N'Djamena, Čad

zeměpisná šířka: 12-08N, zeměpisná délka: 015-02E, výška: 295 m

Aktuální stav počasí

Zpráva byla vytvořena před 1 hodinou a 5 minutami, v 23:00 UTC
Severní vítr 6 kt
Teplota 26°C
Vlhkost vzduchu 21%
Tlak 1010 hPa
Viditelnost 10 km a více
Žádná oblačnost pod 1500 m, nevyskytují se cumulonimby.

METAR: FTTJ 192300Z 35006KT CAVOK 26/02 Q1010 NOSIG

Čas: 01:05 (00:05 UTC)

Předpověď počasí

Zpráva byla vytvořena před 1 hodinou a 5 minutami, v 23:00 UTC
Předpověď platná od 20 v 00 UTC do 21 v 06 UTC
Severoseverozápadní vítr 6 kt
Viditelnost: 6000 m
Dočasný
od 20 v 02 UTC do 20 v 06 UTC
Viditelnost: 4000 m
zákal
Dočasný
od 20 v 07 UTC do 20 v 14 UTC
Severovýchodní vítr 10 kt
Viditelnost 10 km a více
Žádná oblačnost pod 1500 m, nevyskytují se cumulonimby.

TAF: FTTJ 192300Z 2000/2106 34006KT 6000 NSC TEMPO 2002/2006 4000 HZ TEMPO 2007/2014 04010KT CAVOK

Stav a předpovědi počasí z více než 4 000 letišť (zprávy METAR a TAF).

Červené a žluté tečky na mapě představují dostupné meteorologické stanice.

Když kurzor umístíte na tečku, zobrazí se název stanice.

Pak kliknutím zobrazíte stav a předpověď počasí.

Chcete-li změnit mapu, kliknutím na zelené tlačítko se znaménkem +mapu přiblížíte, kliknutím na zelené tlačítko se znaménkem – mapu oddálíte a kliknutím na zelené šipky přejdete na sousední mapy.


METAR-TAF: